Time;durP1;ratioP1;P1;durP2;ratioP2;P2;SDS_P1;SDS_P2;PMS_P1;PMS_P2;Temp;Humidity;BMP_temperature;BMP_pressure;BME280_temperature;BME280_humidity;BME280_pressure;Samples;Min_cycle;Max_cycle;Signal;HPM_P1;HPM_P2
2022/09/22 00:00:33;;;;;;;15.43;7.20;;;;;;;;;;5014467;28;20492;-80
2022/09/22 00:03:00;;;;;;;16.85;7.60;;;;;;;;;;5014926;28;20077;-81
2022/09/22 00:05:26;;;;;;;17.15;8.82;;;;;;;;;;5014934;28;20065;-80
2022/09/22 00:07:52;;;;;;;14.57;7.53;;;;;;;;;;5014633;28;20060;-80
2022/09/22 00:10:22;;;;;;;14.73;8.20;;;;;;;;;;4993278;28;20053;-81
2022/09/22 00:12:49;;;;;;;11.10;7.05;;;;;;;;;;4995262;28;20507;-84
2022/09/22 00:15:16;;;;;;;11.57;6.93;;;;;;;;;;4995327;28;20607;-80
2022/09/22 00:17:43;;;;;;;13.60;7.50;;;;;;;;;;4994255;28;20052;-81
2022/09/22 00:20:12;;;;;;;12.02;7.70;;;;;;;;;;4994192;28;20069;-83
2022/09/22 00:22:39;;;;;;;13.63;7.93;;;;;;;;;;4994107;28;20046;-83
2022/09/22 00:25:07;;;;;;;14.23;8.05;;;;;;;;;;4976354;28;20053;-82
2022/09/22 00:27:33;;;;;;;14.43;7.82;;;;;;;;;;4993576;28;20078;-82
2022/09/22 00:30:00;;;;;;;11.45;7.07;;;;;;;;;;4992130;28;20057;-82
2022/09/22 00:32:27;;;;;;;10.98;7.38;;;;;;;;;;4993328;28;20142;-81
2022/09/22 00:34:53;;;;;;;11.95;6.75;;;;;;;;;;4994914;28;20061;-80
2022/09/22 00:37:19;;;;;;;11.00;6.70;;;;;;;;;;4994487;28;20528;-84
2022/09/22 00:39:46;;;;;;;11.48;6.65;;;;;;;;;;4994500;28;20046;-81
2022/09/22 00:42:12;;;;;;;11.75;6.80;;;;;;;;;;4994603;28;20590;-82
2022/09/22 00:44:38;;;;;;;12.65;6.72;;;;;;;;;;4994020;28;20050;-82
2022/09/22 00:47:10;;;;;;;10.73;6.32;;;;;;;;;;4994202;28;20136;-81
2022/09/22 00:49:43;;;;;;;13.70;6.75;;;;;;;;;;4982540;28;20061;-82
2022/09/22 00:52:12;;;;;;;10.50;6.47;;;;;;;;;;5006067;28;20061;-82
2022/09/22 00:54:38;;;;;;;9.85;6.88;;;;;;;;;;4998649;28;20089;-82
2022/09/22 00:57:09;;;;;;;22.10;8.52;;;;;;;;;;4996138;28;20054;-82
2022/09/22 00:59:36;;;;;;;13.88;8.32;;;;;;;;;;4975828;28;20080;-81
2022/09/22 01:02:03;;;;;;;14.73;8.15;;;;;;;;;;4994337;28;20141;-82
2022/09/22 01:04:29;;;;;;;13.27;7.78;;;;;;;;;;4991427;28;20058;-81
2022/09/22 01:06:56;;;;;;;12.27;7.72;;;;;;;;;;5000154;28;20046;-83
2022/09/22 01:09:23;;;;;;;12.57;8.15;;;;;;;;;;4991373;28;20065;-79
2022/09/22 01:11:49;;;;;;;13.40;7.43;;;;;;;;;;4992450;28;20046;-80
2022/09/22 01:14:31;;;;;;;14.20;7.60;;;;;;;;;;4991855;28;20046;-81
2022/09/22 01:17:07;;;;;;;11.80;7.70;;;;;;;;;;4992131;28;20047;-81
2022/09/22 01:19:48;;;;;;;12.95;8.20;;;;;;;;;;4990083;28;20042;-81
2022/09/22 01:22:20;;;;;;;17.60;8.27;;;;;;;;;;4992084;28;20057;-80
2022/09/22 01:24:59;;;;;;;15.13;8.82;;;;;;;;;;4992271;28;20056;-80
2022/09/22 01:27:45;;;;;;;16.35;8.52;;;;;;;;;;4974606;28;20050;-81
2022/09/22 01:30:11;;;;;;;;;;;;;;;;;;4990709;28;20054;-79
2022/09/22 01:32:56;;;;;;;16.30;9.30;;;;;;;;;;4991640;28;19926;-80
2022/09/22 01:35:28;;;;;;;14.73;8.23;;;;;;;;;;4992435;28;20060;-82
2022/09/22 01:38:01;;;;;;;13.07;8.95;;;;;;;;;;4991533;28;20426;-82
2022/09/22 01:40:30;;;;;;;15.23;9.27;;;;;;;;;;4990313;28;20403;-80
2022/09/22 01:43:06;;;;;;;12.73;9.10;;;;;;;;;;4974604;28;20053;-81
2022/09/22 01:45:33;;;;;;;;;;;;;;;;;;4974613;28;20081;-82
2022/09/22 01:48:07;;;;;;;16.33;9.45;;;;;;;;;;4991070;28;19921;-82
2022/09/22 01:50:45;;;;;;;18.38;9.95;;;;;;;;;;4992245;28;20093;-82
2022/09/22 01:53:13;;;;;;;16.80;9.98;;;;;;;;;;4991017;28;20094;-83
2022/09/22 01:55:41;;;;;;;15.50;9.98;;;;;;;;;;4991311;28;20069;-81
2022/09/22 01:58:13;;;;;;;14.43;10.25;;;;;;;;;;4972598;28;20055;-83
2022/09/22 02:00:45;;;;;;;17.42;9.48;;;;;;;;;;4991072;28;20050;-82
2022/09/22 02:03:14;;;;;;;14.75;9.57;;;;;;;;;;4972690;28;20065;-82
2022/09/22 02:05:44;;;;;;;16.63;10.07;;;;;;;;;;4991587;28;20085;-82
2022/09/22 02:08:13;;;;;;;17.00;9.95;;;;;;;;;;4972658;28;20055;-82
2022/09/22 02:10:41;;;;;;;19.10;9.45;;;;;;;;;;4973644;28;20056;-82
2022/09/22 02:13:10;;;;;;;15.25;7.85;;;;;;;;;;4992548;28;20519;-82
2022/09/22 02:18:24;;;;;;;14.27;9.20;;;;;;;;;;4989473;28;20410;-82
2022/09/22 02:20:51;;;;;;;12.98;8.23;;;;;;;;;;4973981;28;20632;-82
2022/09/22 02:23:17;;;;;;;14.13;9.38;;;;;;;;;;4990333;28;20054;-81
2022/09/22 02:25:44;;;;;;;16.17;8.55;;;;;;;;;;4990799;28;20061;-81
2022/09/22 02:28:14;;;;;;;13.50;9.63;;;;;;;;;;4972372;28;20064;-81
2022/09/22 02:30:42;;;;;;;15.23;8.93;;;;;;;;;;4990247;28;20062;-82
2022/09/22 02:33:29;;;;;;;15.27;9.63;;;;;;;;;;4989764;28;20074;-82
2022/09/22 02:36:11;;;;;;;16.98;9.45;;;;;;;;;;4990861;28;20050;-82
2022/09/22 02:38:43;;;;;;;14.88;9.63;;;;;;;;;;4995812;28;20046;-82
2022/09/22 02:41:13;;;;;;;14.43;8.95;;;;;;;;;;4999744;28;20558;-81
2022/09/22 02:43:52;;;;;;;16.67;9.65;;;;;;;;;;4993016;28;20056;-83
2022/09/22 02:46:22;;;;;;;16.30;9.43;;;;;;;;;;4992833;28;20866;-82
2022/09/22 02:48:50;;;;;;;11.55;8.10;;;;;;;;;;4974460;28;20529;-83
2022/09/22 02:51:17;;;;;;;13.45;7.85;;;;;;;;;;4991305;28;20058;-82
2022/09/22 02:53:43;;;;;;;13.77;8.32;;;;;;;;;;4991629;28;20060;-82
2022/09/22 02:56:10;;;;;;;12.50;8.20;;;;;;;;;;4991780;28;20046;-82
2022/09/22 02:58:36;;;;;;;15.20;7.40;;;;;;;;;;4978377;28;20047;-83
2022/09/22 03:01:03;;;;;;;13.48;7.00;;;;;;;;;;4972449;28;20047;-84
2022/09/22 03:03:29;;;;;;;11.02;6.70;;;;;;;;;;4954335;28;20085;-82
2022/09/22 03:05:58;;;;;;;11.68;7.53;;;;;;;;;;4972195;28;20058;-82
2022/09/22 03:08:24;;;;;;;14.02;7.88;;;;;;;;;;4954757;28;20085;-83
2022/09/22 03:10:51;;;;;;;19.23;8.65;;;;;;;;;;4971333;28;20081;-83
2022/09/22 03:13:17;;;;;;;14.60;8.45;;;;;;;;;;4972269;28;20051;-83
2022/09/22 03:15:44;;;;;;;12.30;8.00;;;;;;;;;;4991726;28;20049;-83
2022/09/22 03:18:11;;;;;;;11.32;7.43;;;;;;;;;;4991952;28;20061;-81
2022/09/22 03:20:37;;;;;;;18.58;8.13;;;;;;;;;;4980451;28;20118;-83
2022/09/22 03:23:03;;;;;;;15.65;8.32;;;;;;;;;;4972489;28;20119;-82
2022/09/22 03:25:30;;;;;;;13.10;8.75;;;;;;;;;;4971584;28;20055;-82
2022/09/22 03:27:56;;;;;;;13.82;8.82;;;;;;;;;;4972281;28;20065;-82
2022/09/22 03:30:22;;;;;;;19.58;9.60;;;;;;;;;;4970867;28;20062;-82
2022/09/22 03:32:49;;;;;;;18.65;11.02;;;;;;;;;;4991119;28;20054;-82
2022/09/22 03:35:15;;;;;;;17.90;10.18;;;;;;;;;;4990645;28;20052;-83
2022/09/22 03:37:42;;;;;;;16.27;9.45;;;;;;;;;;4980476;28;20047;-82
2022/09/22 03:40:08;;;;;;;17.95;10.35;;;;;;;;;;4988685;28;20054;-80
2022/09/22 03:42:35;;;;;;;18.77;10.40;;;;;;;;;;4990356;28;20117;-81
2022/09/22 03:45:03;;;;;;;16.65;9.63;;;;;;;;;;4975604;28;20077;-81
2022/09/22 03:47:29;;;;;;;14.77;9.65;;;;;;;;;;4993562;28;20106;-82
2022/09/22 03:49:56;;;;;;;17.55;10.15;;;;;;;;;;4992879;28;20055;-82
2022/09/22 03:52:23;;;;;;;12.82;8.43;;;;;;;;;;4993512;28;20061;-81
2022/09/22 03:54:51;;;;;;;25.63;7.85;;;;;;;;;;4992895;28;20050;-82
2022/09/22 03:57:17;;;;;;;13.82;8.00;;;;;;;;;;4993344;28;20416;-81
2022/09/22 03:59:43;;;;;;;12.23;7.07;;;;;;;;;;4993011;28;20043;-81
2022/09/22 04:02:10;;;;;;;14.40;7.65;;;;;;;;;;4993010;28;20046;-82
2022/09/22 04:04:36;;;;;;;13.60;8.25;;;;;;;;;;4992808;28;20046;-82
2022/09/22 04:07:03;;;;;;;13.73;8.10;;;;;;;;;;4994727;28;20050;-82
2022/09/22 04:09:32;;;;;;;12.55;8.23;;;;;;;;;;4975986;28;20132;-82
2022/09/22 04:11:59;;;;;;;15.50;8.30;;;;;;;;;;4993455;28;20054;-81
2022/09/22 04:14:28;;;;;;;11.63;7.53;;;;;;;;;;4992840;28;20061;-82
2022/09/22 04:16:58;;;;;;;12.82;7.80;;;;;;;;;;4976282;28;20141;-84
2022/09/22 04:19:25;;;;;;;15.13;8.95;;;;;;;;;;4994942;28;20042;-79
2022/09/22 04:21:51;;;;;;;13.88;9.55;;;;;;;;;;4996257;28;20137;-80
2022/09/22 04:24:23;;;;;;;19.52;9.07;;;;;;;;;;4996804;28;20055;-81
2022/09/22 04:26:49;;;;;;;16.63;8.90;;;;;;;;;;4996768;28;20046;-80
2022/09/22 04:29:36;;;;;;;17.08;8.82;;;;;;;;;;4994076;28;20525;-82
2022/09/22 04:32:02;;;;;;;14.15;8.65;;;;;;;;;;4994232;28;20058;-82
2022/09/22 04:34:29;;;;;;;14.55;8.75;;;;;;;;;;4993512;28;20049;-82
2022/09/22 04:36:55;;;;;;;17.85;8.75;;;;;;;;;;4994566;28;20057;-82
2022/09/22 04:39:22;;;;;;;14.82;8.98;;;;;;;;;;4993202;28;20148;-82
2022/09/22 04:41:49;;;;;;;17.90;9.05;;;;;;;;;;4973848;28;20051;-82
2022/09/22 04:44:16;;;;;;;12.65;7.85;;;;;;;;;;4975211;28;20078;-81
2022/09/22 04:46:44;;;;;;;12.88;7.85;;;;;;;;;;4995914;28;20050;-79
2022/09/22 04:49:12;;;;;;;18.80;7.90;;;;;;;;;;5003278;28;20074;-80
2022/09/22 04:51:38;;;;;;;11.63;8.15;;;;;;;;;;4997057;28;20050;-81
2022/09/22 04:54:04;;;;;;;12.77;8.32;;;;;;;;;;4992952;28;20268;-82
2022/09/22 04:56:31;;;;;;;13.82;7.90;;;;;;;;;;4991988;28;20129;-82
2022/09/22 04:58:57;;;;;;;13.07;8.10;;;;;;;;;;4992412;28;20050;-83
2022/09/22 05:01:26;;;;;;;17.85;8.63;;;;;;;;;;4992472;28;20046;-82
2022/09/22 05:03:52;;;;;;;15.68;8.35;;;;;;;;;;4992439;28;20116;-83
2022/09/22 05:06:19;;;;;;;14.25;8.23;;;;;;;;;;4993387;28;20081;-80
2022/09/22 05:08:45;;;;;;;15.13;7.75;;;;;;;;;;4992484;28;20054;-83
2022/09/22 05:11:11;;;;;;;12.88;7.72;;;;;;;;;;4993076;28;20058;-82
2022/09/22 05:13:39;;;;;;;18.10;10.20;;;;;;;;;;4976326;28;20070;-82
2022/09/22 05:16:07;;;;;;;11.20;7.57;;;;;;;;;;4992638;28;20058;-83
2022/09/22 05:18:33;;;;;;;9.68;6.55;;;;;;;;;;4991535;28;20050;-82
2022/09/22 05:21:00;;;;;;;12.32;6.50;;;;;;;;;;4993192;28;20050;-81
2022/09/22 05:23:27;;;;;;;9.85;5.90;;;;;;;;;;4992597;28;20054;-81
2022/09/22 05:25:53;;;;;;;9.93;6.07;;;;;;;;;;4993389;28;20078;-81
2022/09/22 05:28:23;;;;;;;9.38;6.13;;;;;;;;;;4975656;28;20050;-84
2022/09/22 05:30:50;;;;;;;11.57;6.35;;;;;;;;;;4977548;28;20058;-84
2022/09/22 05:33:16;;;;;;;10.15;6.45;;;;;;;;;;5000534;28;20133;-82
2022/09/22 05:35:43;;;;;;;9.27;5.95;;;;;;;;;;4993068;28;20061;-83
2022/09/22 05:38:09;;;;;;;14.48;5.70;;;;;;;;;;4993280;28;20050;-82
2022/09/22 05:40:35;;;;;;;11.20;5.38;;;;;;;;;;4992249;28;20098;-82
2022/09/22 05:43:02;;;;;;;9.65;5.57;;;;;;;;;;4991529;28;20050;-82
2022/09/22 05:45:28;;;;;;;12.95;5.72;;;;;;;;;;4992147;28;20050;-82
2022/09/22 05:47:55;;;;;;;10.18;5.57;;;;;;;;;;4991916;28;20499;-81
2022/09/22 05:50:23;;;;;;;13.30;6.50;;;;;;;;;;4992773;28;20056;-81
2022/09/22 05:52:49;;;;;;;13.93;6.70;;;;;;;;;;4994397;28;20061;-81
2022/09/22 05:55:16;;;;;;;13.00;6.43;;;;;;;;;;4977987;28;20046;-81
2022/09/22 05:57:43;;;;;;;10.02;6.40;;;;;;;;;;4988020;28;20092;-80
2022/09/22 06:00:09;;;;;;;15.38;7.30;;;;;;;;;;4953093;28;20525;-82
2022/09/22 06:02:36;;;;;;;13.00;8.18;;;;;;;;;;4970818;28;20522;-82
2022/09/22 06:05:02;;;;;;;13.18;7.28;;;;;;;;;;4972113;28;20094;-80
2022/09/22 06:07:29;;;;;;;17.60;8.15;;;;;;;;;;4953304;28;20050;-80
2022/09/22 06:09:55;;;;;;;14.20;7.47;;;;;;;;;;4973070;28;20482;-80
2022/09/22 06:12:21;;;;;;;12.88;7.85;;;;;;;;;;4984502;28;20046;-81
2022/09/22 06:14:48;;;;;;;13.07;7.93;;;;;;;;;;4973860;28;20049;-81
2022/09/22 06:17:14;;;;;;;17.23;8.85;;;;;;;;;;4960891;28;20139;-81
2022/09/22 06:19:48;;;;;;;16.77;9.40;;;;;;;;;;4971271;28;20058;-81
2022/09/22 06:22:15;;;;;;;16.98;9.95;;;;;;;;;;4972248;28;20141;-81
2022/09/22 06:24:42;;;;;;;13.98;9.70;;;;;;;;;;4972303;28;20064;-80
2022/09/22 06:27:08;;;;;;;22.38;10.70;;;;;;;;;;4972400;28;20050;-83
2022/09/22 06:29:36;;;;;;;20.17;10.82;;;;;;;;;;4973264;28;20065;-83
2022/09/22 06:32:06;;;;;;;16.77;11.32;;;;;;;;;;4975383;28;20051;-82
2022/09/22 06:34:33;;;;;;;26.67;11.85;;;;;;;;;;4963415;28;20086;-82
2022/09/22 06:37:01;;;;;;;24.65;11.77;;;;;;;;;;4992043;28;20070;-81
2022/09/22 06:39:27;;;;;;;23.50;11.75;;;;;;;;;;4989054;28;20055;-82
2022/09/22 06:41:55;;;;;;;18.25;11.30;;;;;;;;;;4973475;28;20057;-83
2022/09/22 06:44:24;;;;;;;22.42;12.27;;;;;;;;;;4972304;28;20057;-82
2022/09/22 06:46:50;;;;;;;27.88;14.25;;;;;;;;;;4973166;28;20058;-82
2022/09/22 06:49:16;;;;;;;21.70;13.73;;;;;;;;;;4972471;28;20057;-81
2022/09/22 06:51:43;;;;;;;28.95;14.40;;;;;;;;;;4973429;28;20069;-82
2022/09/22 06:54:10;;;;;;;25.45;14.55;;;;;;;;;;4973991;28;20057;-82
2022/09/22 06:56:39;;;;;;;27.15;14.35;;;;;;;;;;4973671;28;20065;-83
2022/09/22 06:59:09;;;;;;;29.33;14.15;;;;;;;;;;4970637;28;20049;-83
2022/09/22 07:01:36;;;;;;;29.30;14.93;;;;;;;;;;4992809;28;20046;-83
2022/09/22 07:04:03;;;;;;;28.70;13.75;;;;;;;;;;4977238;28;20053;-83
2022/09/22 07:06:30;;;;;;;21.50;13.18;;;;;;;;;;4992631;28;20057;-83
2022/09/22 07:08:56;;;;;;;25.73;13.38;;;;;;;;;;4991980;28;20054;-81
2022/09/22 07:11:22;;;;;;;28.13;13.48;;;;;;;;;;4991118;28;20050;-80
2022/09/22 07:13:53;;;;;;;21.52;11.70;;;;;;;;;;4991980;28;20073;-79
2022/09/22 07:16:21;;;;;;;22.73;12.43;;;;;;;;;;4991915;28;20054;-82
2022/09/22 07:18:48;;;;;;;19.95;12.50;;;;;;;;;;4994679;28;20463;-83
2022/09/22 07:21:19;;;;;;;17.48;10.38;;;;;;;;;;4996769;28;20051;-82
2022/09/22 07:23:48;;;;;;;20.42;11.05;;;;;;;;;;4996326;28;20054;-83
2022/09/22 07:26:19;;;;;;;22.88;10.73;;;;;;;;;;4996723;28;20060;-82
2022/09/22 07:28:49;;;;;;;20.92;10.07;;;;;;;;;;4995381;28;20050;-82
2022/09/22 07:31:16;;;;;;;20.42;10.13;;;;;;;;;;4997426;28;20101;-82
2022/09/22 07:33:43;;;;;;;16.10;9.20;;;;;;;;;;4995129;28;20599;-81
2022/09/22 07:36:14;;;;;;;16.95;9.25;;;;;;;;;;4996112;28;20419;-83
2022/09/22 07:38:41;;;;;;;15.85;9.57;;;;;;;;;;4995771;28;20506;-81
2022/09/22 07:41:11;;;;;;;21.42;10.07;;;;;;;;;;4998358;28;20042;-81
2022/09/22 07:43:38;;;;;;;18.85;9.32;;;;;;;;;;4976632;28;20523;-80
2022/09/22 07:46:04;;;;;;;20.35;9.68;;;;;;;;;;4995054;28;20066;-80
2022/09/22 07:48:40;;;;;;;15.07;8.73;;;;;;;;;;4993445;28;20065;-80
2022/09/22 07:51:08;;;;;;;16.33;9.50;;;;;;;;;;4994619;28;20392;-81
2022/09/22 07:53:41;;;;;;;13.70;8.25;;;;;;;;;;4977381;28;20495;-81
2022/09/22 07:56:12;;;;;;;14.52;8.13;;;;;;;;;;4976022;28;20052;-80
2022/09/22 07:58:40;;;;;;;18.48;8.48;;;;;;;;;;4980286;28;20043;-83
2022/09/22 08:01:09;;;;;;;17.33;8.13;;;;;;;;;;4974403;28;20046;-81
2022/09/22 08:03:36;;;;;;;14.35;7.30;;;;;;;;;;4974657;28;20131;-83
2022/09/22 08:06:09;;;;;;;12.30;6.85;;;;;;;;;;4974552;28;20061;-83
2022/09/22 08:08:36;;;;;;;19.08;7.05;;;;;;;;;;4974463;28;20069;-82
2022/09/22 08:11:03;;;;;;;12.45;6.85;;;;;;;;;;4974019;28;20062;-81
2022/09/22 08:13:30;;;;;;;15.95;7.80;;;;;;;;;;4974984;28;20134;-82
2022/09/22 08:15:59;;;;;;;14.02;6.85;;;;;;;;;;4975755;28;20089;-81
2022/09/22 08:18:27;;;;;;;13.82;7.38;;;;;;;;;;4973990;28;20527;-82
2022/09/22 08:20:53;;;;;;;16.73;6.68;;;;;;;;;;4976431;28;20502;-83
2022/09/22 08:23:20;;;;;;;13.13;6.15;;;;;;;;;;4976187;28;20054;-81
2022/09/22 08:25:46;;;;;;;10.30;6.28;;;;;;;;;;4975840;28;20499;-81
2022/09/22 08:28:13;;;;;;;13.60;5.68;;;;;;;;;;4979714;28;20073;-81
2022/09/22 08:30:44;;;;;;;13.35;5.72;;;;;;;;;;4955869;28;20145;-83
2022/09/22 08:33:10;;;;;;;10.18;5.95;;;;;;;;;;4974901;28;20051;-81
2022/09/22 08:35:36;;;;;;;12.75;5.03;;;;;;;;;;4975041;28;20047;-82
2022/09/22 08:38:03;;;;;;;12.60;5.03;;;;;;;;;;4974563;28;20061;-81
2022/09/22 08:40:33;;;;;;;9.00;4.47;;;;;;;;;;4975487;28;20113;-82
2022/09/22 08:43:00;;;;;;;10.20;4.72;;;;;;;;;;4974373;28;20496;-81
2022/09/22 08:45:32;;;;;;;8.48;4.70;;;;;;;;;;4975682;28;20053;-81
2022/09/22 08:53:40;;;;;;;10.93;3.95;;;;;;;;;;4974132;28;20051;-83
2022/09/22 08:56:19;;;;;;;5.78;3.17;;;;;;;;;;4959106;28;20061;-80
2022/09/22 08:58:49;;;;;;;7.35;4.07;;;;;;;;;;4985780;28;20047;-80
2022/09/22 09:01:34;;;;;;;6.70;3.60;;;;;;;;;;4992720;28;20221;-81
2022/09/22 09:04:00;;;;;;;6.85;3.30;;;;;;;;;;4992105;28;20058;-81
2022/09/22 09:06:46;;;;;;;7.68;3.15;;;;;;;;;;4992100;28;20145;-81
2022/09/22 09:09:12;;;;;;;10.05;3.58;;;;;;;;;;4992692;28;20046;-80
2022/09/22 09:11:45;;;;;;;6.32;3.50;;;;;;;;;;4991582;28;20073;-81
2022/09/22 09:14:26;;;;;;;8.32;3.80;;;;;;;;;;4992449;28;20077;-80
2022/09/22 09:16:58;;;;;;;8.75;3.67;;;;;;;;;;4992466;28;20053;-81
2022/09/22 09:19:46;;;;;;;7.00;3.70;;;;;;;;;;4991268;28;20114;-81
2022/09/22 09:22:12;;;;;;;10.88;3.70;;;;;;;;;;4992385;28;20130;-80
2022/09/22 09:24:41;;;;;;;5.15;2.90;;;;;;;;;;4992048;28;20050;-80
2022/09/22 09:27:29;;;;;;;8.43;2.65;;;;;;;;;;4991810;28;20097;-81
2022/09/22 09:30:02;;;;;;;4.13;2.00;;;;;;;;;;4990816;28;20062;-81
2022/09/22 09:32:33;;;;;;;4.10;2.25;;;;;;;;;;4991812;28;20085;-80
2022/09/22 09:35:00;;;;;;;5.88;2.60;;;;;;;;;;4975090;28;20050;-81
2022/09/22 09:37:27;;;;;;;4.57;2.20;;;;;;;;;;4992169;28;20046;-81
2022/09/22 09:39:54;;;;;;;2.58;1.63;;;;;;;;;;4991712;28;20237;-81
2022/09/22 09:42:24;;;;;;;5.13;1.73;;;;;;;;;;4991410;28;20372;-81
2022/09/22 09:44:53;;;;;;;8.05;2.20;;;;;;;;;;4992235;28;20054;-81
2022/09/22 09:47:23;;;;;;;2.58;1.70;;;;;;;;;;4993712;28;20126;-81
2022/09/22 09:49:50;;;;;;;4.60;2.13;;;;;;;;;;4992390;28;20534;-82
2022/09/22 09:52:19;;;;;;;4.57;2.00;;;;;;;;;;4994464;28;20057;-82
2022/09/22 09:54:46;;;;;;;5.70;1.75;;;;;;;;;;5006289;28;20054;-81
2022/09/22 09:57:14;;;;;;;3.45;1.60;;;;;;;;;;5013812;28;20037;-81
2022/09/22 10:02:37;;;;;;;2.45;1.17;;;;;;;;;;4977152;28;20051;-80
2022/09/22 10:05:06;;;;;;;9.75;1.50;;;;;;;;;;4977097;28;20053;-80
2022/09/22 10:07:40;;;;;;;3.92;1.40;;;;;;;;;;4977089;28;20114;-80
2022/09/22 10:10:25;;;;;;;4.88;1.63;;;;;;;;;;4979358;28;20141;-80
2022/09/22 10:12:52;;;;;;;2.03;1.30;;;;;;;;;;4975515;28;20051;-81
2022/09/22 10:15:22;;;;;;;2.50;1.40;;;;;;;;;;4975870;28;20061;-81
2022/09/22 10:17:50;;;;;;;3.67;1.67;;;;;;;;;;4974513;28;20057;-81
2022/09/22 10:20:16;;;;;;;3.22;1.30;;;;;;;;;;4975543;28;20060;-80
2022/09/22 10:22:42;;;;;;;2.25;0.93;;;;;;;;;;4957894;28;20054;-80
2022/09/22 10:25:18;;;;;;;2.10;0.82;;;;;;;;;;4975880;28;20046;-81
2022/09/22 10:27:57;;;;;;;3.13;0.93;;;;;;;;;;4974848;28;20110;-81
2022/09/22 10:30:24;;;;;;;2.65;0.82;;;;;;;;;;4973330;28;20057;-81
2022/09/22 10:33:03;;;;;;;3.85;0.95;;;;;;;;;;4972579;28;20062;-83
2022/09/22 10:35:32;;;;;;;2.25;0.77;;;;;;;;;;4976735;28;20239;-80
2022/09/22 10:38:09;;;;;;;2.22;0.75;;;;;;;;;;4973682;28;20055;-80
2022/09/22 10:40:37;;;;;;;1.42;0.60;;;;;;;;;;4973825;28;20058;-80
2022/09/22 10:43:06;;;;;;;2.30;0.63;;;;;;;;;;4973241;28;20114;-81
2022/09/22 10:45:46;;;;;;;2.13;0.93;;;;;;;;;;4975799;28;20133;-81
2022/09/22 10:48:28;;;;;;;2.75;0.80;;;;;;;;;;4975851;28;20207;-81
2022/09/22 10:50:58;;;;;;;4.22;0.90;;;;;;;;;;4976090;28;20047;-80
2022/09/22 10:53:34;;;;;;;1.85;1.00;;;;;;;;;;4976408;28;20058;-81
2022/09/22 10:56:12;;;;;;;2.45;0.90;;;;;;;;;;4976501;28;20062;-80
2022/09/22 10:58:47;;;;;;;2.80;1.10;;;;;;;;;;4972993;28;20051;-81
2022/09/22 11:01:14;;;;;;;;;;;;;;;;;;4972553;28;20047;-80
2022/09/22 11:04:01;;;;;;;2.05;0.98;;;;;;;;;;4974004;28;20402;-81
2022/09/22 11:12:45;;;;;;;3.85;1.00;;;;;;;;;;4972578;28;20055;-80
2022/09/22 11:15:21;;;;;;;4.43;0.85;;;;;;;;;;4965311;28;20519;-80
2022/09/22 11:17:51;;;;;;;3.75;1.13;;;;;;;;;;4975454;28;20054;-79
2022/09/22 11:20:36;;;;;;;1.92;1.00;;;;;;;;;;4970709;28;20051;-81
2022/09/22 11:23:16;;;;;;;2.65;1.33;;;;;;;;;;4972289;28;20482;-80
2022/09/22 11:25:53;;;;;;;4.28;1.80;;;;;;;;;;4976725;28;20059;-82
2022/09/22 11:28:38;;;;;;;3.28;1.10;;;;;;;;;;4974202;28;20059;-82
2022/09/22 11:31:04;;;;;;;1.58;0.90;;;;;;;;;;4956683;28;20051;-83
2022/09/22 11:33:49;;;;;;;1.98;1.00;;;;;;;;;;4974941;28;20051;-84
2022/09/22 11:36:15;;;;;;;3.80;1.08;;;;;;;;;;4956797;28;20051;-81
2022/09/22 11:39:00;;;;;;;1.73;0.95;;;;;;;;;;4970196;28;20054;-83
2022/09/22 11:41:27;;;;;;;5.05;1.38;;;;;;;;;;4970361;28;20050;-82
2022/09/22 11:44:05;;;;;;;3.33;1.10;;;;;;;;;;4971504;28;20051;-81
2022/09/22 11:46:41;;;;;;;4.13;1.58;;;;;;;;;;4971521;28;20081;-82
2022/09/22 11:49:07;;;;;;;7.43;1.83;;;;;;;;;;4969587;28;20054;-81
2022/09/22 11:51:34;;;;;;;6.78;1.98;;;;;;;;;;4970824;28;20089;-81
2022/09/22 11:54:09;;;;;;;5.82;1.83;;;;;;;;;;4972037;28;20058;-82
2022/09/22 11:56:58;;;;;;;3.05;1.40;;;;;;;;;;4971389;28;20054;-80
2022/09/22 11:59:34;;;;;;;2.88;1.33;;;;;;;;;;4971321;28;20050;-83
2022/09/22 12:02:03;;;;;;;1.65;1.10;;;;;;;;;;4991706;28;20073;-82
2022/09/22 12:04:34;;;;;;;1.85;0.85;;;;;;;;;;4992810;28;20054;-81
2022/09/22 12:07:02;;;;;;;2.78;0.88;;;;;;;;;;4995404;28;20050;-83
2022/09/22 12:09:37;;;;;;;1.40;0.90;;;;;;;;;;4993914;28;20061;-83
2022/09/22 12:12:05;;;;;;;3.00;0.90;;;;;;;;;;4995253;28;20433;-83
2022/09/22 12:14:31;;;;;;;2.65;1.05;;;;;;;;;;4995903;28;20050;-83
2022/09/22 12:17:01;;;;;;;2.28;1.20;;;;;;;;;;4995467;28;20077;-83
2022/09/22 12:19:47;;;;;;;1.88;1.17;;;;;;;;;;4999249;28;20050;-82
2022/09/22 12:22:41;;;;;;;3.38;1.30;;;;;;;;;;4978783;28;20061;-82
2022/09/22 12:25:14;;;;;;;2.90;0.90;;;;;;;;;;4992452;28;20046;-82
2022/09/22 12:28:00;;;;;;;3.10;1.40;;;;;;;;;;4992632;28;20181;-80
2022/09/22 12:30:26;;;;;;;2.03;1.05;;;;;;;;;;4974333;28;20050;-83
2022/09/22 12:32:53;;;;;;;2.95;1.20;;;;;;;;;;4992554;28;20054;-79
2022/09/22 12:35:25;;;;;;;2.95;0.90;;;;;;;;;;4975611;28;20174;-81
2022/09/22 12:37:59;;;;;;;2.80;1.20;;;;;;;;;;4993706;28;20161;-81
2022/09/22 12:40:31;;;;;;;2.53;1.00;;;;;;;;;;4991698;28;20529;-81
2022/09/22 12:43:00;;;;;;;2.60;1.02;;;;;;;;;;4992241;28;20590;-83
2022/09/22 12:45:30;;;;;;;3.72;1.05;;;;;;;;;;4992020;28;20046;-83
2022/09/22 12:47:58;;;;;;;2.13;1.05;;;;;;;;;;4991634;28;20474;-81
2022/09/22 12:50:30;;;;;;;4.38;1.70;;;;;;;;;;4994021;28;20046;-80
2022/09/22 12:53:15;;;;;;;3.45;1.38;;;;;;;;;;4976662;28;20050;-80
2022/09/22 12:55:42;;;;;;;5.40;2.10;;;;;;;;;;4992760;28;20145;-80
2022/09/22 12:58:17;;;;;;;7.93;1.40;;;;;;;;;;4966596;28;20054;-82
2022/09/22 13:00:47;;;;;;;4.95;1.90;;;;;;;;;;4975547;28;20054;-80
2022/09/22 13:03:23;;;;;;;5.65;1.27;;;;;;;;;;4972683;28;20051;-80
2022/09/22 13:05:49;;;;;;;2.80;1.00;;;;;;;;;;4974870;28;20050;-84
2022/09/22 13:08:17;;;;;;;8.07;3.20;;;;;;;;;;4975148;28;20051;-83
2022/09/22 13:10:54;;;;;;;21.15;6.75;;;;;;;;;;4974878;28;20133;-83
2022/09/22 13:13:23;;;;;;;9.18;4.15;;;;;;;;;;4993831;28;20057;-82
2022/09/22 13:15:50;;;;;;;18.30;7.72;;;;;;;;;;4975954;28;20042;-83
2022/09/22 13:18:36;;;;;;;10.95;4.80;;;;;;;;;;4977658;28;20046;-81
2022/09/22 13:21:03;;;;;;;;;;;;;;;;;;4973808;28;20055;-82
2022/09/22 13:23:29;;;;;;;6.90;3.08;;;;;;;;;;4973402;28;19922;-83
2022/09/22 13:26:03;;;;;;;16.27;4.60;;;;;;;;;;4956811;28;20412;-82
2022/09/22 13:28:30;;;;;;;10.93;4.88;;;;;;;;;;4973845;28;20069;-83
2022/09/22 13:31:08;;;;;;;9.27;3.05;;;;;;;;;;4973654;28;20136;-82
2022/09/22 13:33:35;;;;;;;5.15;1.70;;;;;;;;;;4973965;28;20327;-81
2022/09/22 13:36:03;;;;;;;1.40;0.80;;;;;;;;;;4961777;28;20523;-79
2022/09/22 13:38:32;;;;;;;1.00;0.80;;;;;;;;;;4990398;28;20058;-80
2022/09/22 13:40:58;;;;;;;0.85;0.60;;;;;;;;;;4990397;28;20513;-81
2022/09/22 13:43:36;;;;;;;4.18;2.33;;;;;;;;;;4988451;28;20610;-81
2022/09/22 13:46:03;;;;;;;8.70;3.00;;;;;;;;;;4990877;28;20395;-81
2022/09/22 13:48:35;;;;;;;7.38;3.40;;;;;;;;;;4989906;28;20050;-81
2022/09/22 13:51:04;;;;;;;1.33;0.90;;;;;;;;;;4992544;28;20056;-81
2022/09/22 13:53:31;;;;;;;1.25;0.80;;;;;;;;;;4974973;28;20054;-81
2022/09/22 13:55:58;;;;;;;1.35;0.80;;;;;;;;;;4991821;28;20056;-81
2022/09/22 13:58:33;;;;;;;8.05;3.97;;;;;;;;;;4993963;28;20046;-80
2022/09/22 14:00:59;;;;;;;8.30;3.42;;;;;;;;;;4973111;28;20411;-80
2022/09/22 14:03:39;;;;;;;7.25;2.05;;;;;;;;;;4991299;28;20105;-79
2022/09/22 14:06:10;;;;;;;4.60;1.65;;;;;;;;;;4991079;28;20062;-79
2022/09/22 14:08:37;;;;;;;3.55;0.88;;;;;;;;;;4989681;28;20042;-80
2022/09/22 14:11:05;;;;;;;1.38;0.50;;;;;;;;;;4989156;28;20042;-83
2022/09/22 14:13:34;;;;;;;3.13;0.82;;;;;;;;;;4989557;28;20054;-82
2022/09/22 14:16:06;;;;;;;2.75;1.20;;;;;;;;;;4990640;28;20057;-81
2022/09/22 14:18:35;;;;;;;2.97;1.30;;;;;;;;;;4991067;28;20601;-82
2022/09/22 14:21:01;;;;;;;1.17;0.57;;;;;;;;;;4991871;28;20073;-81
2022/09/22 14:23:29;;;;;;;1.65;0.93;;;;;;;;;;4990650;28;20042;-82
2022/09/22 14:25:56;;;;;;;6.00;2.38;;;;;;;;;;4990893;28;20039;-80
2022/09/22 14:28:26;;;;;;;5.85;2.10;;;;;;;;;;4989474;28;20049;-81
2022/09/22 14:30:53;;;;;;;16.65;6.15;;;;;;;;;;4989719;28;20097;-81
2022/09/22 14:33:21;;;;;;;17.20;5.65;;;;;;;;;;4990051;28;20054;-81
2022/09/22 14:35:50;;;;;;;16.05;6.03;;;;;;;;;;4987323;28;20057;-81
2022/09/22 14:38:19;;;;;;;17.08;5.50;;;;;;;;;;4995622;28;20524;-84
2022/09/22 14:40:53;;;;;;;6.65;3.00;;;;;;;;;;4984829;28;20410;-79
2022/09/22 14:43:34;;;;;;;11.77;4.38;;;;;;;;;;4990009;28;20080;-81
2022/09/22 14:46:02;;;;;;;15.98;4.68;;;;;;;;;;4987208;28;20046;-80
2022/09/22 14:48:37;;;;;;;8.52;2.55;;;;;;;;;;4966224;28;20174;-79
2022/09/22 14:51:06;;;;;;;12.60;4.47;;;;;;;;;;4985546;28;20054;-81
2022/09/22 14:53:39;;;;;;;15.70;4.80;;;;;;;;;;4986872;28;20144;-81
2022/09/22 14:56:15;;;;;;;8.65;2.58;;;;;;;;;;4986083;28;20133;-81
2022/09/22 14:58:42;;;;;;;4.05;1.95;;;;;;;;;;4985760;28;20140;-80
2022/09/22 15:04:03;;;;;;;4.93;1.90;;;;;;;;;;4985653;28;20482;-81
2022/09/22 15:06:30;;;;;;;1.55;1.08;;;;;;;;;;4987516;28;20051;-83
2022/09/22 15:09:03;;;;;;;4.30;1.60;;;;;;;;;;4989561;28;20039;-83
2022/09/22 15:11:48;;;;;;;2.88;1.10;;;;;;;;;;4991786;28;20084;-83